Time;durP1;ratioP1;P1;durP2;ratioP2;P2;SDS_P1;SDS_P2;PMS_P1;PMS_P2;Temp;Humidity;BMP_temperature;BMP_pressure;BME280_temperature;BME280_humidity;BME280_pressure;Samples;Min_cycle;Max_cycle;Signal;HPM_P1;HPM_P2
2023/07/24 00:02:03;;;;;;;5.78;2.47;;;;;;;;;;5131225;27;20103;-61
2023/07/24 00:04:29;;;;;;;5.32;2.40;;;;;;;;;;5116771;27;20050;-59
2023/07/24 00:06:54;;;;;;;6.43;2.60;;;;;;;;;;5128904;27;20049;-62
2023/07/24 00:09:20;;;;;;;6.20;2.17;;;;;;;;;;5127589;27;20022;-61
2023/07/24 00:11:45;;;;;;;5.13;2.10;;;;;;;;;;5120050;27;20395;-62
2023/07/24 00:14:10;;;;;;;5.63;2.58;;;;;;;;;;5120376;27;20019;-62
2023/07/24 00:16:35;;;;;;;5.15;2.40;;;;;;;;;;5120297;27;20509;-61
2023/07/24 00:19:00;;;;;;;5.35;2.20;;;;;;;;;;5115795;27;20034;-61
2023/07/24 00:21:25;;;;;;;5.90;2.38;;;;;;;;;;5127667;27;20055;-62
2023/07/24 00:23:51;;;;;;;5.20;2.17;;;;;;;;;;5122600;27;20639;-61
2023/07/24 00:26:16;;;;;;;5.97;2.50;;;;;;;;;;5126358;27;20034;-61
2023/07/24 00:28:41;;;;;;;5.00;2.20;;;;;;;;;;5117707;27;20110;-60
2023/07/24 00:31:06;;;;;;;5.50;2.20;;;;;;;;;;5127030;27;20042;-62
2023/07/24 00:33:31;;;;;;;5.50;2.50;;;;;;;;;;5131073;27;20094;-62
2023/07/24 00:35:59;;;;;;;5.00;2.33;;;;;;;;;;5131840;27;20018;-62
2023/07/24 00:38:24;;;;;;;6.18;2.60;;;;;;;;;;5131565;27;20050;-62
2023/07/24 00:40:50;;;;;;;5.77;2.27;;;;;;;;;;5136614;27;20018;-61
2023/07/24 00:43:15;;;;;;;4.80;2.20;;;;;;;;;;5125233;27;20487;-61
2023/07/24 00:45:40;;;;;;;5.82;2.40;;;;;;;;;;5131080;27;20007;-59
2023/07/24 00:48:05;;;;;;;5.50;2.10;;;;;;;;;;5126770;27;20016;-61
2023/07/24 00:50:31;;;;;;;4.80;2.30;;;;;;;;;;5127660;27;20497;-61
2023/07/24 00:52:56;;;;;;;4.90;2.30;;;;;;;;;;5130436;27;20415;-60
2023/07/24 00:55:21;;;;;;;5.37;2.33;;;;;;;;;;5130616;27;20022;-61
2023/07/24 00:57:46;;;;;;;7.13;2.43;;;;;;;;;;5131367;27;20023;-63
2023/07/24 01:00:12;;;;;;;4.70;2.33;;;;;;;;;;5125682;27;20012;-62
2023/07/24 01:02:37;;;;;;;5.63;2.50;;;;;;;;;;5130550;27;20015;-62
2023/07/24 01:05:03;;;;;;;5.10;2.30;;;;;;;;;;5130832;27;20015;-61
2023/07/24 01:07:28;;;;;;;5.20;2.50;;;;;;;;;;5130911;27;20024;-61
2023/07/24 01:09:56;;;;;;;5.77;2.40;;;;;;;;;;5131005;27;20472;-63
2023/07/24 01:12:47;;;;;;;5.10;2.40;;;;;;;;;;5129505;27;20043;-59
2023/07/24 01:15:15;;;;;;;5.97;2.35;;;;;;;;;;5101744;27;20209;-61
2023/07/24 01:17:45;;;;;;;7.13;2.58;;;;;;;;;;5132235;27;20561;-61
2023/07/24 01:20:12;;;;;;;5.07;2.25;;;;;;;;;;5132421;27;20039;-61
2023/07/24 01:22:40;;;;;;;5.95;2.70;;;;;;;;;;5127253;27;20475;-61
2023/07/24 01:25:24;;;;;;;5.20;2.63;;;;;;;;;;5134815;27;20428;-61
2023/07/24 01:27:49;;;;;;;5.13;2.30;;;;;;;;;;5128920;27;20023;-60
2023/07/24 01:30:16;;;;;;;5.67;2.30;;;;;;;;;;5128902;27;20028;-62
2023/07/24 01:32:41;;;;;;;5.00;2.40;;;;;;;;;;5126291;27;20024;-62
2023/07/24 01:35:07;;;;;;;5.53;2.30;;;;;;;;;;5134949;27;20042;-60
2023/07/24 01:37:34;;;;;;;5.57;2.53;;;;;;;;;;5134327;27;20007;-61
2023/07/24 01:39:59;;;;;;;6.15;2.35;;;;;;;;;;5138723;27;20023;-60
2023/07/24 01:42:25;;;;;;;4.88;2.20;;;;;;;;;;5134310;27;20087;-61
2023/07/24 01:44:53;;;;;;;4.95;2.40;;;;;;;;;;5134027;27;20019;-62
2023/07/24 01:47:19;;;;;;;6.05;2.38;;;;;;;;;;5134288;27;20079;-60
2023/07/24 01:49:44;;;;;;;5.30;2.47;;;;;;;;;;5129058;27;20027;-61
2023/07/24 01:52:09;;;;;;;5.47;2.30;;;;;;;;;;5134097;27;20014;-61
2023/07/24 01:54:34;;;;;;;5.78;2.53;;;;;;;;;;5124755;27;20019;-62
2023/07/24 01:56:59;;;;;;;5.22;2.40;;;;;;;;;;5126529;27;20030;-61
2023/07/24 01:59:24;;;;;;;5.40;2.40;;;;;;;;;;5122970;27;20045;-61
2023/07/24 02:01:50;;;;;;;5.70;2.63;;;;;;;;;;5126119;27;20023;-62
2023/07/24 02:04:15;;;;;;;8.33;3.00;;;;;;;;;;5133518;27;20023;-61
2023/07/24 02:06:40;;;;;;;5.37;2.60;;;;;;;;;;5122041;27;20024;-60
2023/07/24 02:09:05;;;;;;;4.70;2.27;;;;;;;;;;5132778;27;20034;-61
2023/07/24 02:11:30;;;;;;;6.27;2.77;;;;;;;;;;5133009;27;20111;-60
2023/07/24 02:13:55;;;;;;;5.72;2.70;;;;;;;;;;5131845;27;20007;-60
2023/07/24 02:16:21;;;;;;;7.03;2.70;;;;;;;;;;5128018;27;20055;-62
2023/07/24 02:18:46;;;;;;;5.70;2.80;;;;;;;;;;5133719;27;20085;-60
2023/07/24 02:21:11;;;;;;;8.70;2.60;;;;;;;;;;5122917;27;20007;-61
2023/07/24 02:23:36;;;;;;;5.20;2.70;;;;;;;;;;5119993;27;20025;-62
2023/07/24 02:26:01;;;;;;;6.30;2.73;;;;;;;;;;5133320;27;20093;-63
2023/07/24 02:28:26;;;;;;;5.70;2.57;;;;;;;;;;5129841;27;20373;-61
2023/07/24 02:30:55;;;;;;;5.60;2.50;;;;;;;;;;5133330;27;20031;-60
2023/07/24 02:33:21;;;;;;;5.22;2.60;;;;;;;;;;5132616;27;20385;-62
2023/07/24 02:35:46;;;;;;;5.73;2.70;;;;;;;;;;5133257;27;20053;-59
2023/07/24 02:38:11;;;;;;;6.03;2.58;;;;;;;;;;5133171;27;20022;-59
2023/07/24 02:40:36;;;;;;;7.47;3.10;;;;;;;;;;5125696;27;20023;-62
2023/07/24 02:43:01;;;;;;;6.17;2.80;;;;;;;;;;5132733;27;20043;-61
2023/07/24 02:45:26;;;;;;;6.37;2.77;;;;;;;;;;5133353;27;20011;-62
2023/07/24 02:47:52;;;;;;;5.77;3.00;;;;;;;;;;5134418;27;20023;-60
2023/07/24 02:50:17;;;;;;;5.27;2.80;;;;;;;;;;5134080;27;20106;-61
2023/07/24 02:52:42;;;;;;;6.83;3.43;;;;;;;;;;5132315;27;20441;-60
2023/07/24 02:55:07;;;;;;;6.13;3.17;;;;;;;;;;5133578;27;20030;-61
2023/07/24 02:57:32;;;;;;;6.07;2.83;;;;;;;;;;5128919;27;20015;-62
2023/07/24 02:59:58;;;;;;;5.20;2.80;;;;;;;;;;5134447;27;20030;-59
2023/07/24 03:02:23;;;;;;;5.45;3.10;;;;;;;;;;5134393;27;20015;-61
2023/07/24 03:04:48;;;;;;;5.65;2.72;;;;;;;;;;5127029;27;20031;-60
2023/07/24 03:07:13;;;;;;;5.63;2.80;;;;;;;;;;5134663;27;20048;-62
2023/07/24 03:09:38;;;;;;;5.50;2.70;;;;;;;;;;5132974;27;20027;-62
2023/07/24 03:12:03;;;;;;;6.03;2.57;;;;;;;;;;5129888;27;20490;-60
2023/07/24 03:14:29;;;;;;;6.03;2.80;;;;;;;;;;5136477;27;20067;-60
2023/07/24 03:16:54;;;;;;;5.55;2.58;;;;;;;;;;5137780;27;20023;-61
2023/07/24 03:19:20;;;;;;;5.40;2.70;;;;;;;;;;5125962;27;20038;-60
2023/07/24 03:21:45;;;;;;;7.13;2.78;;;;;;;;;;5126548;27;20095;-61
2023/07/24 03:24:10;;;;;;;5.93;2.67;;;;;;;;;;5129428;27;20015;-61
2023/07/24 03:26:35;;;;;;;5.47;2.97;;;;;;;;;;5123606;27;20092;-60
2023/07/24 03:29:00;;;;;;;5.73;2.50;;;;;;;;;;5125705;27;20034;-60
2023/07/24 03:31:26;;;;;;;5.57;2.80;;;;;;;;;;5122155;27;20182;-60
2023/07/24 03:33:51;;;;;;;5.33;2.73;;;;;;;;;;5128581;27;20019;-60
2023/07/24 03:36:16;;;;;;;5.65;2.55;;;;;;;;;;5120550;27;20020;-60
2023/07/24 03:38:41;;;;;;;5.63;2.53;;;;;;;;;;5124748;27;20019;-61
2023/07/24 03:41:06;;;;;;;5.15;2.70;;;;;;;;;;5124721;27;20736;-61
2023/07/24 03:43:31;;;;;;;4.93;2.40;;;;;;;;;;5122610;27;20509;-59
2023/07/24 03:45:57;;;;;;;6.00;2.70;;;;;;;;;;5129153;27;20023;-60
2023/07/24 03:48:22;;;;;;;6.00;2.43;;;;;;;;;;5134332;27;20031;-60
2023/07/24 03:50:49;;;;;;;5.17;2.60;;;;;;;;;;5130564;27;20019;-59
2023/07/24 03:53:14;;;;;;;5.15;2.50;;;;;;;;;;5129697;27;20067;-60
2023/07/24 03:55:39;;;;;;;6.45;2.70;;;;;;;;;;5147133;27;20023;-59
2023/07/24 03:58:04;;;;;;;5.63;2.60;;;;;;;;;;5132304;27;20463;-59
2023/07/24 04:00:29;;;;;;;5.30;2.40;;;;;;;;;;5125882;27;20019;-60
2023/07/24 04:02:55;;;;;;;5.93;2.70;;;;;;;;;;5123055;27;20007;-62
2023/07/24 04:05:20;;;;;;;5.80;2.60;;;;;;;;;;5138571;27;20033;-60
2023/07/24 04:07:45;;;;;;;5.23;2.60;;;;;;;;;;5139226;27;20023;-59
2023/07/24 04:10:10;;;;;;;6.43;2.60;;;;;;;;;;5138118;27;20026;-61
2023/07/24 04:12:36;;;;;;;4.93;2.33;;;;;;;;;;5122704;27;20080;-60
2023/07/24 04:15:01;;;;;;;6.03;2.60;;;;;;;;;;5137751;27;20021;-62
2023/07/24 04:17:26;;;;;;;6.30;2.63;;;;;;;;;;5130773;27;20468;-62
2023/07/24 04:19:51;;;;;;;5.82;3.05;;;;;;;;;;5141490;27;20725;-60
2023/07/24 04:22:16;;;;;;;5.70;2.30;;;;;;;;;;5136426;27;20080;-62
2023/07/24 04:24:42;;;;;;;6.63;3.20;;;;;;;;;;5132426;27;20470;-59
2023/07/24 04:27:07;;;;;;;5.53;2.90;;;;;;;;;;5130716;27;20067;-60
2023/07/24 04:29:32;;;;;;;5.53;2.83;;;;;;;;;;5125493;27;20068;-61
2023/07/24 04:31:57;;;;;;;6.50;2.93;;;;;;;;;;5130849;27;20023;-60
2023/07/24 04:34:22;;;;;;;5.40;2.40;;;;;;;;;;5134463;27;20082;-61
2023/07/24 04:36:47;;;;;;;5.10;2.80;;;;;;;;;;5124019;27;20030;-61
2023/07/24 04:39:12;;;;;;;6.82;3.03;;;;;;;;;;5128893;27;20234;-61
2023/07/24 04:41:38;;;;;;;6.37;2.77;;;;;;;;;;5131263;27;20022;-59
2023/07/24 04:44:03;;;;;;;6.23;2.83;;;;;;;;;;5130740;27;20011;-61
2023/07/24 04:46:28;;;;;;;6.13;2.53;;;;;;;;;;5130622;27;20443;-62
2023/07/24 04:48:53;;;;;;;5.70;2.67;;;;;;;;;;5132389;27;20440;-61
2023/07/24 04:51:18;;;;;;;7.07;2.50;;;;;;;;;;5124155;27;20456;-60
2023/07/24 04:53:44;;;;;;;6.37;3.03;;;;;;;;;;5120576;27;20028;-61
2023/07/24 04:56:10;;;;;;;7.57;2.75;;;;;;;;;;5129454;27;20016;-59
2023/07/24 04:58:35;;;;;;;;;;;;;;;;;;5143306;27;20027;-62
2023/07/24 05:01:04;;;;;;;5.97;2.40;;;;;;;;;;5124639;27;20595;-61
2023/07/24 05:03:29;;;;;;;5.45;2.70;;;;;;;;;;5139775;27;20106;-61
2023/07/24 05:05:55;;;;;;;6.83;3.10;;;;;;;;;;5135212;27;20047;-60
2023/07/24 05:08:20;;;;;;;8.60;2.80;;;;;;;;;;5135366;27;20023;-60
2023/07/24 05:10:46;;;;;;;9.32;3.20;;;;;;;;;;5135396;27;20064;-61
2023/07/24 05:13:11;;;;;;;7.00;2.85;;;;;;;;;;5134757;27;20505;-61
2023/07/24 05:15:36;;;;;;;5.30;2.40;;;;;;;;;;5135555;27;20019;-61
2023/07/24 05:18:01;;;;;;;6.87;3.13;;;;;;;;;;5135446;27;20436;-60
2023/07/24 05:20:26;;;;;;;6.50;2.97;;;;;;;;;;5135271;27;20027;-60
2023/07/24 05:22:51;;;;;;;5.90;2.65;;;;;;;;;;5134609;27;20016;-61
2023/07/24 05:25:16;;;;;;;6.50;3.22;;;;;;;;;;5135466;27;20038;-61
2023/07/24 05:27:42;;;;;;;7.87;3.00;;;;;;;;;;5135298;27;20047;-62
2023/07/24 05:30:07;;;;;;;7.83;3.20;;;;;;;;;;5125114;27;20026;-61
2023/07/24 05:32:32;;;;;;;5.72;2.60;;;;;;;;;;5131638;27;20015;-61
2023/07/24 05:34:57;;;;;;;6.33;3.00;;;;;;;;;;5135912;27;20025;-62
2023/07/24 05:37:23;;;;;;;6.63;2.80;;;;;;;;;;5135836;27;20018;-61
2023/07/24 05:39:48;;;;;;;5.50;2.88;;;;;;;;;;5134821;27;20027;-62
2023/07/24 05:42:13;;;;;;;6.50;2.70;;;;;;;;;;5139327;27;20042;-63
2023/07/24 05:44:38;;;;;;;5.10;2.70;;;;;;;;;;5134819;27;20015;-59
2023/07/24 05:47:03;;;;;;;5.23;2.77;;;;;;;;;;5130114;27;20102;-61
2023/07/24 05:49:28;;;;;;;7.27;3.10;;;;;;;;;;5125452;27;20091;-62
2023/07/24 05:51:54;;;;;;;5.97;2.85;;;;;;;;;;5126949;27;20043;-62
2023/07/24 05:54:19;;;;;;;5.87;3.00;;;;;;;;;;5129459;27;20023;-61
2023/07/24 05:56:44;;;;;;;7.00;2.90;;;;;;;;;;5120055;27;20111;-62
2023/07/24 05:59:09;;;;;;;5.87;2.90;;;;;;;;;;5123062;27;20023;-60
2023/07/24 06:01:34;;;;;;;5.80;2.90;;;;;;;;;;5124925;27;20100;-60
2023/07/24 06:03:59;;;;;;;9.47;3.10;;;;;;;;;;5142114;27;20019;-60
2023/07/24 06:06:25;;;;;;;5.50;3.00;;;;;;;;;;5136696;27;20019;-60
2023/07/24 06:08:50;;;;;;;5.72;3.08;;;;;;;;;;5137376;27;20031;-62
2023/07/24 06:11:16;;;;;;;6.80;3.00;;;;;;;;;;5145379;27;20030;-61
2023/07/24 06:13:41;;;;;;;5.30;2.80;;;;;;;;;;5139178;27;20102;-60
2023/07/24 06:16:07;;;;;;;7.43;3.33;;;;;;;;;;5140516;27;20023;-60
2023/07/24 06:18:32;;;;;;;6.72;3.10;;;;;;;;;;5142479;27;20042;-61
2023/07/24 06:20:57;;;;;;;7.63;2.93;;;;;;;;;;5126990;27;20023;-60
2023/07/24 06:23:22;;;;;;;7.53;3.23;;;;;;;;;;5133206;27;20188;-61
2023/07/24 06:25:48;;;;;;;9.33;3.57;;;;;;;;;;5133510;27;20023;-62
2023/07/24 06:28:13;;;;;;;9.20;3.80;;;;;;;;;;5125514;27;20034;-62
2023/07/24 06:30:38;;;;;;;5.80;3.00;;;;;;;;;;5112430;27;20034;-63
2023/07/24 06:33:03;;;;;;;6.32;2.95;;;;;;;;;;5123820;27;20475;-63
2023/07/24 06:35:29;;;;;;;6.37;2.97;;;;;;;;;;5118928;27;20031;-62
2023/07/24 06:37:54;;;;;;;;;;;;;;;;;;5136528;27;20027;-60
2023/07/24 06:40:19;;;;;;;6.22;3.00;;;;;;;;;;5122215;27;19916;-61
2023/07/24 06:42:45;;;;;;;6.70;3.00;;;;;;;;;;5116042;27;20403;-61
2023/07/24 06:45:10;;;;;;;;;;;;;;;;;;5123100;27;20060;-60
2023/07/24 06:47:35;;;;;;;8.73;2.90;;;;;;;;;;5124632;27;20394;-61
2023/07/24 06:50:00;;;;;;;;;;;;;;;;;;5128469;27;20081;-62
2023/07/24 06:52:25;;;;;;;7.80;2.88;;;;;;;;;;5124872;27;19916;-63
2023/07/24 06:54:50;;;;;;;;;;;;;;;;;;5143447;27;20019;-62
2023/07/24 06:57:15;;;;;;;7.20;3.03;;;;;;;;;;5148960;27;20350;-61
2023/07/24 06:59:41;;;;;;;7.73;3.30;;;;;;;;;;5120674;27;20035;-62
2023/07/24 07:02:06;;;;;;;;;;;;;;;;;;5125261;27;20447;-63
2023/07/24 07:04:31;;;;;;;5.80;2.85;;;;;;;;;;5129076;27;19911;-62
2023/07/24 07:06:56;;;;;;;5.87;3.10;;;;;;;;;;5141625;27;20509;-62
2023/07/24 07:09:21;;;;;;;6.18;3.10;;;;;;;;;;5133062;27;20367;-62
2023/07/24 07:11:46;;;;;;;;;;;;;;;;;;5133608;27;20031;-60
2023/07/24 07:14:12;;;;;;;6.85;3.00;;;;;;;;;;5132222;27;19926;-63
2023/07/24 07:16:37;;;;;;;;;;;;;;;;;;5131614;27;20436;-61
2023/07/24 07:19:02;;;;;;;7.77;3.03;;;;;;;;;;5132727;27;19910;-60
2023/07/24 07:21:28;;;;;;;6.82;2.92;;;;;;;;;;5120510;27;20012;-63
2023/07/24 07:23:53;;;;;;;;;;;;;;;;;;5111891;28;20082;-61
2023/07/24 07:26:18;;;;;;;6.37;3.20;;;;;;;;;;5111652;28;19908;-61
2023/07/24 07:28:44;;;;;;;5.45;2.88;;;;;;;;;;5112259;28;20045;-61
2023/07/24 07:31:09;;;;;;;;;;;;;;;;;;5112399;28;20032;-63
2023/07/24 07:33:34;;;;;;;6.03;2.95;;;;;;;;;;5111471;28;19910;-61
2023/07/24 07:36:00;;;;;;;5.35;2.90;;;;;;;;;;5111852;28;20548;-61
2023/07/24 07:38:25;;;;;;;6.30;3.20;;;;;;;;;;5111399;27;20047;-62
2023/07/24 07:40:50;;;;;;;;;;;;;;;;;;5112488;28;20107;-63
2023/07/24 07:43:15;;;;;;;6.50;3.05;;;;;;;;;;5113693;28;20255;-61
2023/07/24 07:45:40;;;;;;;5.90;3.37;;;;;;;;;;5118797;28;20057;-61
2023/07/24 07:48:05;;;;;;;;;;;;;;;;;;5117357;28;20016;-62
2023/07/24 07:50:31;;;;;;;5.60;2.90;;;;;;;;;;5118949;28;19916;-62
2023/07/24 07:52:56;;;;;;;6.43;2.90;;;;;;;;;;5112260;28;20024;-63
2023/07/24 07:55:21;;;;;;;;;;;;;;;;;;5112442;28;20060;-61
2023/07/24 07:57:46;;;;;;;6.03;2.88;;;;;;;;;;5112111;28;19904;-63
2023/07/24 08:00:11;;;;;;;7.65;3.20;;;;;;;;;;5111804;28;20486;-62
2023/07/24 08:02:40;;;;;;;;;;;;;;;;;;5112261;28;20023;-61
2023/07/24 08:05:08;;;;;;;7.05;3.22;;;;;;;;;;5132154;27;19942;-63
2023/07/24 08:07:33;;;;;;;6.07;3.17;;;;;;;;;;5131790;27;20064;-61
2023/07/24 08:09:58;;;;;;;;;;;;;;;;;;5132351;27;20428;-62
2023/07/24 08:12:24;;;;;;;5.40;3.00;;;;;;;;;;5129174;27;20354;-60
2023/07/24 08:14:49;;;;;;;;;;;;;;;;;;5111696;28;20020;-62
2023/07/24 08:17:14;;;;;;;5.82;3.17;;;;;;;;;;5111775;28;19904;-62
2023/07/24 08:19:40;;;;;;;;;;;;;;;;;;5111259;28;20466;-62
2023/07/24 08:22:05;;;;;;;6.50;3.05;;;;;;;;;;5111119;28;19911;-62
2023/07/24 08:24:33;;;;;;;6.60;3.17;;;;;;;;;;5110774;28;20051;-62
2023/07/24 08:26:58;;;;;;;5.80;3.10;;;;;;;;;;5111496;28;20068;-63
2023/07/24 08:29:23;;;;;;;;;;;;;;;;;;5111984;28;20027;-62
2023/07/24 08:31:48;;;;;;;6.63;2.90;;;;;;;;;;5110917;28;19912;-63
2023/07/24 08:34:13;;;;;;;;;;;;;;;;;;5111475;28;20479;-63
2023/07/24 08:36:39;;;;;;;6.75;3.42;;;;;;;;;;5111797;28;19903;-62
2023/07/24 08:39:04;;;;;;;;;;;;;;;;;;5113894;28;20028;-60
2023/07/24 08:41:31;;;;;;;5.88;3.28;;;;;;;;;;5111310;28;19912;-61
2023/07/24 08:43:56;;;;;;;5.63;3.05;;;;;;;;;;5111635;28;20020;-61
2023/07/24 08:46:21;;;;;;;;;;;;;;;;;;5113011;28;20027;-61
2023/07/24 08:48:46;;;;;;;5.30;2.90;;;;;;;;;;5112651;28;19904;-60
2023/07/24 08:51:11;;;;;;;;;;;;;;;;;;5112122;28;20038;-62
2023/07/24 08:53:38;;;;;;;6.57;3.35;;;;;;;;;;5110436;28;20351;-60
2023/07/24 08:56:03;;;;;;;6.70;3.58;;;;;;;;;;5111100;28;20061;-61
2023/07/24 08:58:28;;;;;;;;;;;;;;;;;;5111439;28;20012;-63
2023/07/24 09:00:54;;;;;;;6.75;3.35;;;;;;;;;;5111126;28;19910;-62
2023/07/24 09:03:19;;;;;;;;;;;;;;;;;;5123029;28;20039;-62
2023/07/24 09:05:44;;;;;;;8.37;3.80;;;;;;;;;;5130293;27;20461;-62
2023/07/24 09:08:10;;;;;;;6.25;3.45;;;;;;;;;;5131428;27;20015;-62
2023/07/24 09:10:35;;;;;;;6.50;3.30;;;;;;;;;;5131460;27;20034;-62
2023/07/24 09:13:03;;;;;;;6.17;3.17;;;;;;;;;;5119229;28;20448;-61
2023/07/24 09:15:28;;;;;;;7.18;3.45;;;;;;;;;;5110757;28;20483;-61
2023/07/24 09:17:54;;;;;;;6.30;3.30;;;;;;;;;;5110597;28;20034;-62
2023/07/24 09:20:19;;;;;;;5.60;3.17;;;;;;;;;;5111218;28;20091;-61
2023/07/24 09:22:51;;;;;;;7.25;3.47;;;;;;;;;;5110394;28;20062;-61
2023/07/24 09:25:17;;;;;;;6.88;3.60;;;;;;;;;;5110710;28;20023;-61
2023/07/24 09:27:42;;;;;;;9.03;3.97;;;;;;;;;;5110630;28;20039;-61
2023/07/24 09:30:19;;;;;;;9.20;4.30;;;;;;;;;;5110350;28;20399;-62
2023/07/24 09:32:51;;;;;;;6.63;3.50;;;;;;;;;;5110035;28;20407;-62
2023/07/24 09:35:18;;;;;;;6.75;3.70;;;;;;;;;;5110820;28;20023;-63
2023/07/24 09:37:43;;;;;;;8.90;4.00;;;;;;;;;;5114375;28;20024;-63
2023/07/24 09:40:09;;;;;;;7.88;4.05;;;;;;;;;;5114067;28;20053;-61
2023/07/24 09:42:35;;;;;;;7.25;3.85;;;;;;;;;;5113863;28;20017;-61
2023/07/24 09:45:01;;;;;;;6.72;3.72;;;;;;;;;;5113701;28;20076;-61
2023/07/24 09:47:26;;;;;;;8.85;4.10;;;;;;;;;;5113032;28;20115;-62
2023/07/24 09:49:53;;;;;;;6.43;3.83;;;;;;;;;;5114089;28;20491;-63
2023/07/24 09:52:18;;;;;;;7.78;4.15;;;;;;;;;;5113853;28;20051;-61
2023/07/24 09:55:03;;;;;;;7.82;4.30;;;;;;;;;;5113740;28;20102;-63
2023/07/24 09:57:29;;;;;;;6.60;3.90;;;;;;;;;;5106393;28;20114;-61
2023/07/24 09:59:56;;;;;;;7.07;4.40;;;;;;;;;;5115674;28;20141;-62
2023/07/24 10:02:21;;;;;;;7.18;4.00;;;;;;;;;;5123712;27;20063;-62
2023/07/24 10:04:46;;;;;;;8.10;4.47;;;;;;;;;;5137753;27;20546;-62
2023/07/24 10:07:13;;;;;;;7.53;4.27;;;;;;;;;;5143499;27;20482;-60
2023/07/24 10:09:39;;;;;;;7.35;4.18;;;;;;;;;;5146582;27;20047;-63
2023/07/24 10:12:04;;;;;;;7.38;4.35;;;;;;;;;;5143947;27;20022;-61
2023/07/24 10:14:30;;;;;;;8.70;3.80;;;;;;;;;;5138987;27;20557;-62
2023/07/24 10:16:56;;;;;;;8.73;4.20;;;;;;;;;;5134555;27;20098;-61
2023/07/24 10:19:21;;;;;;;8.48;4.18;;;;;;;;;;5120010;27;20019;-62
2023/07/24 10:21:47;;;;;;;9.13;4.57;;;;;;;;;;5116973;28;20057;-61
2023/07/24 10:24:12;;;;;;;7.82;4.32;;;;;;;;;;5117101;28;20023;-61
2023/07/24 10:26:37;;;;;;;7.28;4.18;;;;;;;;;;5116406;28;20016;-62
2023/07/24 10:29:03;;;;;;;9.33;4.60;;;;;;;;;;5115170;28;20024;-61
2023/07/24 10:31:29;;;;;;;7.73;4.47;;;;;;;;;;5113608;28;20468;-61
2023/07/24 10:33:55;;;;;;;8.10;4.50;;;;;;;;;;5112364;27;20072;-61
2023/07/24 10:36:22;;;;;;;8.68;4.50;;;;;;;;;;5112304;27;20023;-61
2023/07/24 10:38:52;;;;;;;6.85;3.95;;;;;;;;;;5113423;28;20020;-62
2023/07/24 10:41:17;;;;;;;8.73;5.10;;;;;;;;;;5112903;28;20134;-59
2023/07/24 10:43:42;;;;;;;;;;;;;;;;;;5113286;28;20048;-61
2023/07/24 10:46:07;;;;;;;9.20;4.30;;;;;;;;;;5113432;28;19907;-61
2023/07/24 10:48:33;;;;;;;7.45;4.40;;;;;;;;;;5112699;28;20015;-61
2023/07/24 10:50:58;;;;;;;8.63;4.97;;;;;;;;;;5112769;28;20024;-62
2023/07/24 10:53:23;;;;;;;;;;;;;;;;;;5112935;28;20023;-61
2023/07/24 10:55:50;;;;;;;8.43;4.40;;;;;;;;;;5112426;28;20402;-62
2023/07/24 10:58:15;;;;;;;9.45;4.75;;;;;;;;;;5113015;28;20028;-62
2023/07/24 11:00:40;;;;;;;;;;;;;;;;;;5113033;28;20027;-60
2023/07/24 11:03:12;;;;;;;8.10;4.27;;;;;;;;;;5131514;27;20327;-62
2023/07/24 11:05:46;;;;;;;8.07;4.47;;;;;;;;;;5133038;27;20027;-61
2023/07/24 11:08:15;;;;;;;9.25;4.90;;;;;;;;;;5132947;27;20478;-61
2023/07/24 11:10:47;;;;;;;9.60;4.90;;;;;;;;;;5132678;27;20031;-61
2023/07/24 11:13:12;;;;;;;9.55;5.22;;;;;;;;;;5115475;27;20027;-61
2023/07/24 11:15:37;;;;;;;;;;;;;;;;;;5112331;27;20020;-62
2023/07/24 11:18:02;;;;;;;9.00;5.05;;;;;;;;;;5112286;28;19904;-62
2023/07/24 11:20:27;;;;;;;;;;;;;;;;;;5112983;28;20038;-61
2023/07/24 11:22:52;;;;;;;9.93;5.30;;;;;;;;;;5111375;28;19933;-61
2023/07/24 11:25:18;;;;;;;;;;;;;;;;;;5112530;28;20062;-62
2023/07/24 11:27:43;;;;;;;8.95;5.25;;;;;;;;;;5110639;27;19904;-63
2023/07/24 11:30:09;;;;;;;;;;;;;;;;;;5113010;28;20182;-61
2023/07/24 11:32:34;;;;;;;8.43;5.00;;;;;;;;;;5111754;28;19904;-61
2023/07/24 11:34:59;;;;;;;;;;;;;;;;;;5112213;28;20482;-61
2023/07/24 11:37:24;;;;;;;9.07;4.90;;;;;;;;;;5111730;28;19946;-61
2023/07/24 11:39:49;;;;;;;;;;;;;;;;;;5112328;27;20463;-63
2023/07/24 11:42:15;;;;;;;8.60;4.88;;;;;;;;;;5111763;28;19904;-62
2023/07/24 11:44:40;;;;;;;9.43;5.18;;;;;;;;;;5110911;28;20027;-62
2023/07/24 11:47:05;;;;;;;;;;;;;;;;;;5112175;28;20111;-62
2023/07/24 11:49:31;;;;;;;8.57;5.05;;;;;;;;;;5111970;28;20028;-63
2023/07/24 11:52:00;;;;;;;9.27;4.70;;;;;;;;;;5111813;28;20020;-62
2023/07/24 11:54:25;;;;;;;8.07;4.45;;;;;;;;;;5111367;28;20582;-62
2023/07/24 11:56:50;;;;;;;;;;;;;;;;;;5112595;28;20031;-60
2023/07/24 11:59:15;;;;;;;8.85;4.50;;;;;;;;;;5109750;28;19910;-61
2023/07/24 12:01:40;;;;;;;;;;;;;;;;;;5124943;27;20487;-61
2023/07/24 12:04:06;;;;;;;8.40;4.67;;;;;;;;;;5131320;27;19919;-62
2023/07/24 12:06:31;;;;;;;8.33;4.83;;;;;;;;;;5132119;27;20478;-62
2023/07/24 12:08:56;;;;;;;;;;;;;;;;;;5132207;27;20432;-62
2023/07/24 12:11:24;;;;;;;9.45;5.20;;;;;;;;;;5131761;27;19919;-61
2023/07/24 12:13:50;;;;;;;11.02;5.28;;;;;;;;;;5131408;27;20027;-61
2023/07/24 12:16:15;;;;;;;;;;;;;;;;;;5132302;27;20038;-62
2023/07/24 12:18:40;;;;;;;9.30;5.35;;;;;;;;;;5131692;27;20377;-61
2023/07/24 12:21:05;;;;;;;;;;;;;;;;;;5132363;27;20016;-62
2023/07/24 12:23:30;;;;;;;11.90;5.10;;;;;;;;;;5131702;27;19904;-61
2023/07/24 12:25:55;;;;;;;;;;;;;;;;;;5128675;28;20494;-60
2023/07/24 12:28:20;;;;;;;9.57;5.25;;;;;;;;;;5116955;28;19931;-61
2023/07/24 12:30:48;;;;;;;9.68;5.30;;;;;;;;;;5125600;28;20110;-62
2023/07/24 12:33:14;;;;;;;9.40;5.65;;;;;;;;;;5117021;28;20717;-61
2023/07/24 12:35:39;;;;;;;;;;;;;;;;;;5112320;28;20027;-61
2023/07/24 12:38:04;;;;;;;9.88;5.88;;;;;;;;;;5111021;28;19904;-60
2023/07/24 12:40:29;;;;;;;;;;;;;;;;;;5111441;28;20114;-63
2023/07/24 12:42:54;;;;;;;9.07;5.07;;;;;;;;;;5110402;28;20244;-60
2023/07/24 12:45:19;;;;;;;;;;;;;;;;;;5110121;28;20023;-60
2023/07/24 12:47:45;;;;;;;10.80;5.47;;;;;;;;;;5110460;28;20256;-61
2023/07/24 12:50:10;;;;;;;;;;;;;;;;;;5111524;28;20031;-63
2023/07/24 12:52:35;;;;;;;10.50;5.85;;;;;;;;;;5110728;28;19971;-62
2023/07/24 12:55:00;;;;;;;;;;;;;;;;;;5111356;28;20012;-60
2023/07/24 12:57:26;;;;;;;10.20;5.50;;;;;;;;;;5110898;28;19904;-61
2023/07/24 12:59:51;;;;;;;9.40;5.38;;;;;;;;;;5117688;28;20019;-62
2023/07/24 13:02:16;;;;;;;;;;;;;;;;;;5131900;28;20394;-61
2023/07/24 13:04:42;;;;;;;9.80;4.93;;;;;;;;;;5130582;27;19959;-61
2023/07/24 13:07:07;;;;;;;9.45;5.13;;;;;;;;;;5131095;27;20031;-61
2023/07/24 13:09:32;;;;;;;10.70;5.37;;;;;;;;;;5131872;27;20081;-62
2023/07/24 13:11:57;;;;;;;;;;;;;;;;;;5135896;27;20019;-60
2023/07/24 13:14:23;;;;;;;10.60;5.07;;;;;;;;;;5135660;27;20392;-62
2023/07/24 13:16:48;;;;;;;9.02;4.88;;;;;;;;;;5135641;27;20019;-61
2023/07/24 13:19:13;;;;;;;11.07;5.63;;;;;;;;;;5134910;27;20014;-62
2023/07/24 13:21:42;;;;;;;10.47;5.27;;;;;;;;;;5135150;27;20030;-62
2023/07/24 13:24:08;;;;;;;10.13;5.43;;;;;;;;;;5134722;27;20079;-62
2023/07/24 13:26:33;;;;;;;9.30;5.13;;;;;;;;;;5135055;27;20015;-59
2023/07/24 13:28:58;;;;;;;10.40;5.60;;;;;;;;;;5134784;27;20967;-61
2023/07/24 13:31:23;;;;;;;10.43;5.80;;;;;;;;;;5134647;27;20074;-62
2023/07/24 13:33:48;;;;;;;10.07;5.27;;;;;;;;;;5134351;27;20031;-61
2023/07/24 13:36:14;;;;;;;8.87;5.13;;;;;;;;;;5134971;27;20019;-63
2023/07/24 13:38:40;;;;;;;10.10;5.10;;;;;;;;;;5135063;27;20019;-61
2023/07/24 13:41:05;;;;;;;10.07;5.82;;;;;;;;;;5134934;27;20027;-62
2023/07/24 13:43:30;;;;;;;8.83;5.33;;;;;;;;;;5126118;27;20027;-62
2023/07/24 13:45:56;;;;;;;10.35;5.47;;;;;;;;;;5134697;27;20015;-63
2023/07/24 13:48:21;;;;;;;9.27;5.25;;;;;;;;;;5125456;27;20153;-64
2023/07/24 13:50:46;;;;;;;7.93;4.28;;;;;;;;;;5112695;28;20547;-62
2023/07/24 13:53:12;;;;;;;8.47;4.73;;;;;;;;;;5113305;28;20042;-61
2023/07/24 13:55:37;;;;;;;;;;;;;;;;;;5113745;28;20035;-59
2023/07/24 13:58:02;;;;;;;8.57;4.35;;;;;;;;;;5116736;27;19911;-62
2023/07/24 14:00:27;;;;;;;7.55;4.00;;;;;;;;;;5134545;27;20022;-63
2023/07/24 14:02:52;;;;;;;;;;;;;;;;;;5134086;27;20027;-62
2023/07/24 14:05:17;;;;;;;6.57;3.60;;;;;;;;;;5134249;27;20291;-61
2023/07/24 14:07:44;;;;;;;7.07;3.43;;;;;;;;;;5133949;27;20019;-62
2023/07/24 14:10:09;;;;;;;6.57;3.30;;;;;;;;;;5134105;27;20027;-62
2023/07/24 14:12:34;;;;;;;;;;;;;;;;;;5134487;27;20022;-64
2023/07/24 14:14:59;;;;;;;6.95;2.85;;;;;;;;;;5133726;27;19960;-63
2023/07/24 14:17:24;;;;;;;5.17;2.30;;;;;;;;;;5133875;27;20019;-61
2023/07/24 14:19:49;;;;;;;;;;;;;;;;;;5134224;27;20428;-63
2023/07/24 14:22:15;;;;;;;6.03;2.72;;;;;;;;;;5133035;27;19903;-61
2023/07/24 14:24:40;;;;;;;;;;;;;;;;;;5134097;27;20363;-60
2023/07/24 14:27:06;;;;;;;6.17;3.00;;;;;;;;;;5133782;27;19972;-61
2023/07/24 14:29:31;;;;;;;;;;;;;;;;;;5134217;27;20043;-61
2023/07/24 14:31:56;;;;;;;6.82;3.03;;;;;;;;;;5116819;27;20447;-60
2023/07/24 14:34:21;;;;;;;;;;;;;;;;;;5112912;28;20020;-61
2023/07/24 14:36:46;;;;;;;6.93;3.97;;;;;;;;;;5117665;27;19914;-60
2023/07/24 14:39:11;;;;;;;;;;;;;;;;;;5134042;27;20035;-62
2023/07/24 14:41:36;;;;;;;8.02;3.85;;;;;;;;;;5124481;27;20415;-61
2023/07/24 14:44:01;;;;;;;;;;;;;;;;;;5112772;27;20058;-61
2023/07/24 14:46:27;;;;;;;6.93;3.78;;;;;;;;;;5114217;27;19915;-62
2023/07/24 14:48:52;;;;;;;;;;;;;;;;;;5116872;28;20447;-63
2023/07/24 14:51:17;;;;;;;7.23;4.10;;;;;;;;;;5114276;28;19915;-61